sensor_id;sensor_type;location;lat;lon;timestamp;P1;durP1;ratioP1;P2;durP2;ratioP2
54855;SDS011;40748;53.168;5.800;2022-11-20T00:00:29;0.10;;;0.00;;
54855;SDS011;40748;53.168;5.800;2022-11-20T00:02:59;0.10;;;0.00;;
54855;SDS011;40748;53.168;5.800;2022-11-20T00:05:32;0.10;;;0.00;;
54855;SDS011;40748;53.168;5.800;2022-11-20T00:07:59;0.10;;;0.00;;
54855;SDS011;40748;53.168;5.800;2022-11-20T00:12:59;0.10;;;0.00;;
54855;SDS011;40748;53.168;5.800;2022-11-20T00:15:30;0.10;;;0.00;;
54855;SDS011;40748;53.168;5.800;2022-11-20T00:17:59;0.20;;;0.00;;
54855;SDS011;40748;53.168;5.800;2022-11-20T00:22:59;0.20;;;0.00;;
54855;SDS011;40748;53.168;5.800;2022-11-20T00:25:29;0.20;;;0.00;;
54855;SDS011;40748;53.168;5.800;2022-11-20T00:27:59;0.20;;;0.10;;
54855;SDS011;40748;53.168;5.800;2022-11-20T00:30:29;0.20;;;0.10;;
54855;SDS011;40748;53.168;5.800;2022-11-20T00:32:59;0.20;;;0.10;;
54855;SDS011;40748;53.168;5.800;2022-11-20T00:37:59;0.10;;;0.00;;
54855;SDS011;40748;53.168;5.800;2022-11-20T00:40:29;0.10;;;0.00;;
54855;SDS011;40748;53.168;5.800;2022-11-20T00:42:59;0.10;;;0.00;;
54855;SDS011;40748;53.168;5.800;2022-11-20T00:45:29;0.10;;;0.00;;
54855;SDS011;40748;53.168;5.800;2022-11-20T00:47:59;0.10;;;0.00;;
54855;SDS011;40748;53.168;5.800;2022-11-20T00:50:29;0.10;;;0.00;;
54855;SDS011;40748;53.168;5.800;2022-11-20T00:52:59;0.10;;;0.00;;
54855;SDS011;40748;53.168;5.800;2022-11-20T00:55:29;0.10;;;0.00;;
54855;SDS011;40748;53.168;5.800;2022-11-20T00:57:59;0.30;;;0.10;;
54855;SDS011;40748;53.168;5.800;2022-11-20T01:00:29;0.30;;;0.10;;
54855;SDS011;40748;53.168;5.800;2022-11-20T01:05:34;0.30;;;0.10;;
54855;SDS011;40748;53.168;5.800;2022-11-20T01:07:59;0.10;;;0.00;;
54855;SDS011;40748;53.168;5.800;2022-11-20T01:10:29;0.10;;;0.00;;
54855;SDS011;40748;53.168;5.800;2022-11-20T01:12:59;0.10;;;0.00;;
54855;SDS011;40748;53.168;5.800;2022-11-20T01:15:29;0.10;;;0.00;;
54855;SDS011;40748;53.168;5.800;2022-11-20T01:17:59;0.30;;;0.20;;
54855;SDS011;40748;53.168;5.800;2022-11-20T01:20:29;0.30;;;0.20;;
54855;SDS011;40748;53.168;5.800;2022-11-20T01:25:29;0.30;;;0.20;;
54855;SDS011;40748;53.168;5.800;2022-11-20T01:27:59;0.50;;;0.20;;
54855;SDS011;40748;53.168;5.800;2022-11-20T01:30:29;0.50;;;0.20;;
54855;SDS011;40748;53.168;5.800;2022-11-20T01:32:59;0.50;;;0.20;;
54855;SDS011;40748;53.168;5.800;2022-11-20T01:37:59;1.20;;;0.40;;
54855;SDS011;40748;53.168;5.800;2022-11-20T01:47:59;0.10;;;0.00;;
54855;SDS011;40748;53.168;5.800;2022-11-20T01:53:02;0.10;;;0.00;;
54855;SDS011;40748;53.168;5.800;2022-11-20T01:58:00;0.20;;;0.00;;
54855;SDS011;40748;53.168;5.800;2022-11-20T02:00:29;0.20;;;0.00;;
54855;SDS011;40748;53.168;5.800;2022-11-20T02:03:01;0.20;;;0.00;;
54855;SDS011;40748;53.168;5.800;2022-11-20T02:05:33;0.20;;;0.00;;
54855;SDS011;40748;53.168;5.800;2022-11-20T02:08:00;0.10;;;0.00;;
54855;SDS011;40748;53.168;5.800;2022-11-20T02:12:59;0.10;;;0.00;;
54855;SDS011;40748;53.168;5.800;2022-11-20T02:15:29;0.10;;;0.00;;
54855;SDS011;40748;53.168;5.800;2022-11-20T02:17:59;0.10;;;0.00;;
54855;SDS011;40748;53.168;5.800;2022-11-20T02:23:03;0.10;;;0.00;;
54855;SDS011;40748;53.168;5.800;2022-11-20T02:30:29;0.10;;;0.00;;
54855;SDS011;40748;53.168;5.800;2022-11-20T02:35:40;0.10;;;0.00;;
54855;SDS011;40748;53.168;5.800;2022-11-20T02:38:01;0.10;;;0.00;;
54855;SDS011;40748;53.168;5.800;2022-11-20T02:40:29;0.10;;;0.00;;
54855;SDS011;40748;53.168;5.800;2022-11-20T02:42:59;0.10;;;0.00;;
54855;SDS011;40748;53.168;5.800;2022-11-20T02:45:29;0.10;;;0.00;;
54855;SDS011;40748;53.168;5.800;2022-11-20T02:47:59;0.10;;;0.00;;
54855;SDS011;40748;53.168;5.800;2022-11-20T02:50:29;0.10;;;0.00;;
54855;SDS011;40748;53.168;5.800;2022-11-20T02:52:59;0.10;;;0.00;;
54855;SDS011;40748;53.168;5.800;2022-11-20T02:55:30;0.10;;;0.00;;
54855;SDS011;40748;53.168;5.800;2022-11-20T02:57:59;0.20;;;0.00;;
54855;SDS011;40748;53.168;5.800;2022-11-20T03:02:59;0.20;;;0.00;;
54855;SDS011;40748;53.168;5.800;2022-11-20T03:05:29;0.20;;;0.00;;
54855;SDS011;40748;53.168;5.800;2022-11-20T03:07:59;0.10;;;0.00;;
54855;SDS011;40748;53.168;5.800;2022-11-20T03:12:59;0.10;;;0.00;;
54855;SDS011;40748;53.168;5.800;2022-11-20T03:15:29;0.10;;;0.00;;
54855;SDS011;40748;53.168;5.800;2022-11-20T03:17:59;0.20;;;0.00;;
54855;SDS011;40748;53.168;5.800;2022-11-20T03:20:29;0.20;;;0.00;;
54855;SDS011;40748;53.168;5.800;2022-11-20T03:23:00;0.20;;;0.00;;
54855;SDS011;40748;53.168;5.800;2022-11-20T03:25:29;0.20;;;0.00;;
54855;SDS011;40748;53.168;5.800;2022-11-20T03:30:29;0.10;;;0.00;;
54855;SDS011;40748;53.168;5.800;2022-11-20T03:32:59;0.10;;;0.00;;
54855;SDS011;40748;53.168;5.800;2022-11-20T03:35:29;0.10;;;0.00;;
54855;SDS011;40748;53.168;5.800;2022-11-20T03:42:59;0.20;;;0.00;;
54855;SDS011;40748;53.168;5.800;2022-11-20T03:47:59;0.20;;;0.00;;
54855;SDS011;40748;53.168;5.800;2022-11-20T03:50:29;0.20;;;0.00;;
54855;SDS011;40748;53.168;5.800;2022-11-20T03:52:59;0.20;;;0.00;;
54855;SDS011;40748;53.168;5.800;2022-11-20T03:55:29;0.20;;;0.00;;
54855;SDS011;40748;53.168;5.800;2022-11-20T03:57:59;0.10;;;0.00;;
54855;SDS011;40748;53.168;5.800;2022-11-20T04:00:29;0.10;;;0.00;;
54855;SDS011;40748;53.168;5.800;2022-11-20T04:03:00;0.10;;;0.00;;
54855;SDS011;40748;53.168;5.800;2022-11-20T04:05:29;0.10;;;0.00;;
54855;SDS011;40748;53.168;5.800;2022-11-20T04:07:59;0.10;;;0.00;;
54855;SDS011;40748;53.168;5.800;2022-11-20T04:10:29;0.10;;;0.00;;
54855;SDS011;40748;53.168;5.800;2022-11-20T04:12:59;0.10;;;0.00;;
54855;SDS011;40748;53.168;5.800;2022-11-20T04:15:29;0.10;;;0.00;;
54855;SDS011;40748;53.168;5.800;2022-11-20T04:17:59;0.30;;;0.10;;
54855;SDS011;40748;53.168;5.800;2022-11-20T04:20:29;0.30;;;0.10;;
54855;SDS011;40748;53.168;5.800;2022-11-20T04:22:59;0.30;;;0.10;;
54855;SDS011;40748;53.168;5.800;2022-11-20T04:25:29;0.30;;;0.10;;
54855;SDS011;40748;53.168;5.800;2022-11-20T04:27:59;1.80;;;0.80;;
54855;SDS011;40748;53.168;5.800;2022-11-20T04:30:29;1.80;;;0.80;;
54855;SDS011;40748;53.168;5.800;2022-11-20T04:32:59;1.80;;;0.80;;
54855;SDS011;40748;53.168;5.800;2022-11-20T04:35:29;1.80;;;0.80;;
54855;SDS011;40748;53.168;5.800;2022-11-20T04:37:59;0.10;;;0.00;;
54855;SDS011;40748;53.168;5.800;2022-11-20T04:40:29;0.10;;;0.00;;
54855;SDS011;40748;53.168;5.800;2022-11-20T04:42:59;0.10;;;0.00;;
54855;SDS011;40748;53.168;5.800;2022-11-20T04:45:29;0.10;;;0.00;;
54855;SDS011;40748;53.168;5.800;2022-11-20T04:47:59;0.10;;;0.00;;
54855;SDS011;40748;53.168;5.800;2022-11-20T04:50:29;0.10;;;0.00;;
54855;SDS011;40748;53.168;5.800;2022-11-20T04:52:59;0.10;;;0.00;;
54855;SDS011;40748;53.168;5.800;2022-11-20T04:55:29;0.10;;;0.00;;
54855;SDS011;40748;53.168;5.800;2022-11-20T04:57:59;0.20;;;0.00;;
54855;SDS011;40748;53.168;5.800;2022-11-20T05:00:29;0.20;;;0.00;;
54855;SDS011;40748;53.168;5.800;2022-11-20T05:02:59;0.20;;;0.00;;
54855;SDS011;40748;53.168;5.800;2022-11-20T05:05:29;0.20;;;0.00;;
54855;SDS011;40748;53.168;5.800;2022-11-20T05:07:59;0.10;;;0.00;;
54855;SDS011;40748;53.168;5.800;2022-11-20T05:10:30;0.10;;;0.00;;
54855;SDS011;40748;53.168;5.800;2022-11-20T05:12:59;0.10;;;0.00;;
54855;SDS011;40748;53.168;5.800;2022-11-20T05:15:29;0.10;;;0.00;;
54855;SDS011;40748;53.168;5.800;2022-11-20T05:17:59;0.10;;;0.00;;
54855;SDS011;40748;53.168;5.800;2022-11-20T05:20:29;0.10;;;0.00;;
54855;SDS011;40748;53.168;5.800;2022-11-20T05:22:59;0.10;;;0.00;;
54855;SDS011;40748;53.168;5.800;2022-11-20T05:27:59;0.10;;;0.00;;
54855;SDS011;40748;53.168;5.800;2022-11-20T05:30:30;0.10;;;0.00;;
54855;SDS011;40748;53.168;5.800;2022-11-20T05:32:59;0.10;;;0.00;;
54855;SDS011;40748;53.168;5.800;2022-11-20T05:37:59;0.10;;;0.00;;
54855;SDS011;40748;53.168;5.800;2022-11-20T05:40:29;0.10;;;0.00;;
54855;SDS011;40748;53.168;5.800;2022-11-20T05:45:29;0.10;;;0.00;;
54855;SDS011;40748;53.168;5.800;2022-11-20T05:47:59;0.30;;;0.10;;
54855;SDS011;40748;53.168;5.800;2022-11-20T05:50:29;0.30;;;0.10;;
54855;SDS011;40748;53.168;5.800;2022-11-20T05:53:00;0.30;;;0.10;;
54855;SDS011;40748;53.168;5.800;2022-11-20T05:55:29;0.30;;;0.10;;
54855;SDS011;40748;53.168;5.800;2022-11-20T05:57:59;0.10;;;0.00;;
54855;SDS011;40748;53.168;5.800;2022-11-20T06:00:29;0.10;;;0.00;;
54855;SDS011;40748;53.168;5.800;2022-11-20T06:02:59;0.10;;;0.00;;
54855;SDS011;40748;53.168;5.800;2022-11-20T06:05:29;0.10;;;0.00;;
54855;SDS011;40748;53.168;5.800;2022-11-20T06:08:00;0.10;;;0.00;;
54855;SDS011;40748;53.168;5.800;2022-11-20T06:10:29;0.10;;;0.00;;
54855;SDS011;40748;53.168;5.800;2022-11-20T06:12:59;0.10;;;0.00;;
54855;SDS011;40748;53.168;5.800;2022-11-20T06:15:29;0.10;;;0.00;;
54855;SDS011;40748;53.168;5.800;2022-11-20T06:17:59;0.20;;;0.00;;
54855;SDS011;40748;53.168;5.800;2022-11-20T06:20:29;0.20;;;0.00;;
54855;SDS011;40748;53.168;5.800;2022-11-20T06:25:29;0.20;;;0.00;;
54855;SDS011;40748;53.168;5.800;2022-11-20T06:27:59;0.10;;;0.00;;
54855;SDS011;40748;53.168;5.800;2022-11-20T06:30:29;0.10;;;0.00;;
54855;SDS011;40748;53.168;5.800;2022-11-20T06:32:59;0.10;;;0.00;;
54855;SDS011;40748;53.168;5.800;2022-11-20T06:35:29;0.10;;;0.00;;
54855;SDS011;40748;53.168;5.800;2022-11-20T06:37:59;0.10;;;0.00;;
54855;SDS011;40748;53.168;5.800;2022-11-20T06:40:29;0.10;;;0.00;;
54855;SDS011;40748;53.168;5.800;2022-11-20T06:42:59;0.10;;;0.00;;
54855;SDS011;40748;53.168;5.800;2022-11-20T06:45:29;0.10;;;0.00;;
54855;SDS011;40748;53.168;5.800;2022-11-20T06:47:59;0.10;;;0.00;;
54855;SDS011;40748;53.168;5.800;2022-11-20T06:50:29;0.10;;;0.00;;
54855;SDS011;40748;53.168;5.800;2022-11-20T06:53:00;0.10;;;0.00;;
54855;SDS011;40748;53.168;5.800;2022-11-20T06:55:30;0.10;;;0.00;;
54855;SDS011;40748;53.168;5.800;2022-11-20T06:57:59;0.30;;;0.10;;
54855;SDS011;40748;53.168;5.800;2022-11-20T07:00:29;0.30;;;0.10;;
54855;SDS011;40748;53.168;5.800;2022-11-20T07:03:02;0.30;;;0.10;;
54855;SDS011;40748;53.168;5.800;2022-11-20T07:07:59;0.40;;;0.20;;
54855;SDS011;40748;53.168;5.800;2022-11-20T07:10:29;0.40;;;0.20;;
54855;SDS011;40748;53.168;5.800;2022-11-20T07:12:59;0.40;;;0.20;;
54855;SDS011;40748;53.168;5.800;2022-11-20T07:15:29;0.40;;;0.20;;
54855;SDS011;40748;53.168;5.800;2022-11-20T07:20:29;0.10;;;0.00;;
54855;SDS011;40748;53.168;5.800;2022-11-20T07:22:59;0.10;;;0.00;;
54855;SDS011;40748;53.168;5.800;2022-11-20T07:25:29;0.10;;;0.00;;
54855;SDS011;40748;53.168;5.800;2022-11-20T07:28:00;0.10;;;0.00;;
54855;SDS011;40748;53.168;5.800;2022-11-20T07:30:30;0.10;;;0.00;;
54855;SDS011;40748;53.168;5.800;2022-11-20T07:32:59;0.10;;;0.00;;
54855;SDS011;40748;53.168;5.800;2022-11-20T07:35:29;0.10;;;0.00;;
54855;SDS011;40748;53.168;5.800;2022-11-20T07:37:59;0.20;;;0.00;;
54855;SDS011;40748;53.168;5.800;2022-11-20T07:40:30;0.20;;;0.00;;
54855;SDS011;40748;53.168;5.800;2022-11-20T07:42:59;0.20;;;0.00;;
54855;SDS011;40748;53.168;5.800;2022-11-20T07:45:29;0.20;;;0.00;;
54855;SDS011;40748;53.168;5.800;2022-11-20T07:47:59;0.10;;;0.00;;
54855;SDS011;40748;53.168;5.800;2022-11-20T07:50:29;0.10;;;0.00;;
54855;SDS011;40748;53.168;5.800;2022-11-20T07:53:01;0.10;;;0.00;;
54855;SDS011;40748;53.168;5.800;2022-11-20T07:55:29;0.10;;;0.00;;
54855;SDS011;40748;53.168;5.800;2022-11-20T07:57:59;0.40;;;0.20;;
54855;SDS011;40748;53.168;5.800;2022-11-20T08:00:29;0.40;;;0.20;;
54855;SDS011;40748;53.168;5.800;2022-11-20T08:03:02;0.40;;;0.20;;
54855;SDS011;40748;53.168;5.800;2022-11-20T08:05:29;0.40;;;0.20;;
54855;SDS011;40748;53.168;5.800;2022-11-20T08:07:59;0.10;;;0.00;;
54855;SDS011;40748;53.168;5.800;2022-11-20T08:10:29;0.10;;;0.00;;
54855;SDS011;40748;53.168;5.800;2022-11-20T08:12:59;0.10;;;0.00;;
54855;SDS011;40748;53.168;5.800;2022-11-20T08:15:29;0.10;;;0.00;;
54855;SDS011;40748;53.168;5.800;2022-11-20T08:18:01;0.20;;;0.00;;
54855;SDS011;40748;53.168;5.800;2022-11-20T08:20:29;0.20;;;0.00;;
54855;SDS011;40748;53.168;5.800;2022-11-20T08:23:00;0.20;;;0.00;;
54855;SDS011;40748;53.168;5.800;2022-11-20T08:25:29;0.20;;;0.00;;
54855;SDS011;40748;53.168;5.800;2022-11-20T08:28:00;0.10;;;0.00;;
54855;SDS011;40748;53.168;5.800;2022-11-20T08:30:29;0.10;;;0.00;;
54855;SDS011;40748;53.168;5.800;2022-11-20T08:33:01;0.10;;;0.00;;
54855;SDS011;40748;53.168;5.800;2022-11-20T08:35:33;0.10;;;0.00;;
54855;SDS011;40748;53.168;5.800;2022-11-20T08:37:59;0.10;;;0.00;;
54855;SDS011;40748;53.168;5.800;2022-11-20T08:40:29;0.10;;;0.00;;
54855;SDS011;40748;53.168;5.800;2022-11-20T08:42:59;0.10;;;0.00;;
54855;SDS011;40748;53.168;5.800;2022-11-20T08:45:29;0.10;;;0.00;;
54855;SDS011;40748;53.168;5.800;2022-11-20T08:47:59;0.10;;;0.00;;
54855;SDS011;40748;53.168;5.800;2022-11-20T08:50:30;0.10;;;0.00;;
54855;SDS011;40748;53.168;5.800;2022-11-20T08:53:02;0.10;;;0.00;;
54855;SDS011;40748;53.168;5.800;2022-11-20T08:55:29;0.10;;;0.00;;
54855;SDS011;40748;53.168;5.800;2022-11-20T08:58:03;2.70;;;0.50;;
54855;SDS011;40748;53.168;5.800;2022-11-20T09:00:29;2.70;;;0.50;;
54855;SDS011;40748;53.168;5.800;2022-11-20T09:02:59;2.70;;;0.50;;
54855;SDS011;40748;53.168;5.800;2022-11-20T09:05:29;2.70;;;0.50;;
54855;SDS011;40748;53.168;5.800;2022-11-20T09:07:59;0.80;;;0.70;;
54855;SDS011;40748;53.168;5.800;2022-11-20T09:10:29;0.80;;;0.70;;
54855;SDS011;40748;53.168;5.800;2022-11-20T09:12:59;0.80;;;0.70;;
54855;SDS011;40748;53.168;5.800;2022-11-20T09:15:29;0.80;;;0.70;;
54855;SDS011;40748;53.168;5.800;2022-11-20T09:18:01;0.40;;;0.10;;
54855;SDS011;40748;53.168;5.800;2022-11-20T09:20:30;0.40;;;0.10;;
54855;SDS011;40748;53.168;5.800;2022-11-20T09:22:59;0.40;;;0.10;;
54855;SDS011;40748;53.168;5.800;2022-11-20T09:25:29;0.40;;;0.10;;
54855;SDS011;40748;53.168;5.800;2022-11-20T09:27:59;0.70;;;0.20;;
54855;SDS011;40748;53.168;5.800;2022-11-20T09:30:29;0.70;;;0.20;;
54855;SDS011;40748;53.168;5.800;2022-11-20T09:32:59;0.70;;;0.20;;
54855;SDS011;40748;53.168;5.800;2022-11-20T09:35:29;0.70;;;0.20;;
54855;SDS011;40748;53.168;5.800;2022-11-20T09:38:05;0.60;;;0.30;;
54855;SDS011;40748;53.168;5.800;2022-11-20T09:40:29;0.60;;;0.30;;
54855;SDS011;40748;53.168;5.800;2022-11-20T09:43:03;0.60;;;0.30;;
54855;SDS011;40748;53.168;5.800;2022-11-20T09:45:39;0.60;;;0.30;;
54855;SDS011;40748;53.168;5.800;2022-11-20T09:48:12;0.10;;;0.00;;
54855;SDS011;40748;53.168;5.800;2022-11-20T09:50:33;0.10;;;0.00;;
54855;SDS011;40748;53.168;5.800;2022-11-20T09:53:11;0.10;;;0.00;;
54855;SDS011;40748;53.168;5.800;2022-11-20T09:55:30;0.10;;;0.00;;
54855;SDS011;40748;53.168;5.800;2022-11-20T09:57:59;1.40;;;0.50;;
54855;SDS011;40748;53.168;5.800;2022-11-20T10:00:29;1.40;;;0.50;;
54855;SDS011;40748;53.168;5.800;2022-11-20T10:03:02;1.40;;;0.50;;
54855;SDS011;40748;53.168;5.800;2022-11-20T10:05:33;1.40;;;0.50;;
54855;SDS011;40748;53.168;5.800;2022-11-20T10:08:08;0.20;;;0.00;;
54855;SDS011;40748;53.168;5.800;2022-11-20T10:10:35;0.20;;;0.00;;
54855;SDS011;40748;53.168;5.800;2022-11-20T10:13:10;0.20;;;0.00;;
54855;SDS011;40748;53.168;5.800;2022-11-20T10:15:34;0.20;;;0.00;;
54855;SDS011;40748;53.168;5.800;2022-11-20T10:18:11;0.20;;;0.00;;
54855;SDS011;40748;53.168;5.800;2022-11-20T10:20:35;0.20;;;0.00;;
54855;SDS011;40748;53.168;5.800;2022-11-20T10:25:36;0.20;;;0.00;;
54855;SDS011;40748;53.168;5.800;2022-11-20T10:28:14;0.10;;;0.00;;
54855;SDS011;40748;53.168;5.800;2022-11-20T10:30:31;0.10;;;0.00;;
54855;SDS011;40748;53.168;5.800;2022-11-20T10:33:03;0.10;;;0.00;;
54855;SDS011;40748;53.168;5.800;2022-11-20T10:35:35;0.10;;;0.00;;
54855;SDS011;40748;53.168;5.800;2022-11-20T10:38:06;2.10;;;1.10;;
54855;SDS011;40748;53.168;5.800;2022-11-20T10:40:35;2.10;;;1.10;;
54855;SDS011;40748;53.168;5.800;2022-11-20T10:43:02;2.10;;;1.10;;
54855;SDS011;40748;53.168;5.800;2022-11-20T10:45:43;2.10;;;1.10;;
54855;SDS011;40748;53.168;5.800;2022-11-20T10:48:09;0.40;;;0.20;;
54855;SDS011;40748;53.168;5.800;2022-11-20T10:50:29;0.40;;;0.20;;
54855;SDS011;40748;53.168;5.800;2022-11-20T10:53:06;0.40;;;0.20;;
54855;SDS011;40748;53.168;5.800;2022-11-20T10:55:33;0.40;;;0.20;;
54855;SDS011;40748;53.168;5.800;2022-11-20T10:58:04;0.10;;;0.00;;
54855;SDS011;40748;53.168;5.800;2022-11-20T11:00:30;0.10;;;0.00;;
54855;SDS011;40748;53.168;5.800;2022-11-20T11:02:59;0.10;;;0.00;;
54855;SDS011;40748;53.168;5.800;2022-11-20T11:05:34;0.10;;;0.00;;
54855;SDS011;40748;53.168;5.800;2022-11-20T11:07:59;0.40;;;0.20;;
54855;SDS011;40748;53.168;5.800;2022-11-20T11:10:36;0.40;;;0.20;;
54855;SDS011;40748;53.168;5.800;2022-11-20T11:12:59;0.40;;;0.20;;
54855;SDS011;40748;53.168;5.800;2022-11-20T11:15:36;0.40;;;0.20;;
54855;SDS011;40748;53.168;5.800;2022-11-20T11:17:59;0.20;;;0.00;;
54855;SDS011;40748;53.168;5.800;2022-11-20T11:20:29;0.20;;;0.00;;
54855;SDS011;40748;53.168;5.800;2022-11-20T11:23:00;0.20;;;0.00;;
54855;SDS011;40748;53.168;5.800;2022-11-20T11:25:31;0.20;;;0.00;;
54855;SDS011;40748;53.168;5.800;2022-11-20T11:28:01;0.10;;;0.00;;
54855;SDS011;40748;53.168;5.800;2022-11-20T11:30:41;0.10;;;0.00;;
54855;SDS011;40748;53.168;5.800;2022-11-20T11:33:03;0.10;;;0.00;;
54855;SDS011;40748;53.168;5.800;2022-11-20T11:35:29;0.10;;;0.00;;
54855;SDS011;40748;53.168;5.800;2022-11-20T11:38:04;0.50;;;0.20;;
54855;SDS011;40748;53.168;5.800;2022-11-20T11:40:32;0.50;;;0.20;;
54855;SDS011;40748;53.168;5.800;2022-11-20T11:43:02;0.50;;;0.20;;
54855;SDS011;40748;53.168;5.800;2022-11-20T11:45:29;0.50;;;0.20;;
54855;SDS011;40748;53.168;5.800;2022-11-20T11:48:03;0.60;;;0.30;;
54855;SDS011;40748;53.168;5.800;2022-11-20T11:50:29;0.60;;;0.30;;
54855;SDS011;40748;53.168;5.800;2022-11-20T11:53:08;0.60;;;0.30;;
54855;SDS011;40748;53.168;5.800;2022-11-20T11:55:35;0.60;;;0.30;;
54855;SDS011;40748;53.168;5.800;2022-11-20T11:58:11;0.10;;;0.00;;
54855;SDS011;40748;53.168;5.800;2022-11-20T12:00:29;0.10;;;0.00;;
54855;SDS011;40748;53.168;5.800;2022-11-20T12:03:05;0.10;;;0.00;;
54855;SDS011;40748;53.168;5.800;2022-11-20T12:05:35;0.10;;;0.00;;
54855;SDS011;40748;53.168;5.800;2022-11-20T12:08:02;0.60;;;0.60;;
54855;SDS011;40748;53.168;5.800;2022-11-20T12:10:40;0.60;;;0.60;;
54855;SDS011;40748;53.168;5.800;2022-11-20T12:13:02;0.60;;;0.60;;
54855;SDS011;40748;53.168;5.800;2022-11-20T12:15:32;0.60;;;0.60;;
54855;SDS011;40748;53.168;5.800;2022-11-20T12:18:00;0.40;;;0.30;;
54855;SDS011;40748;53.168;5.800;2022-11-20T12:20:37;0.40;;;0.30;;
54855;SDS011;40748;53.168;5.800;2022-11-20T12:23:05;0.40;;;0.30;;
54855;SDS011;40748;53.168;5.800;2022-11-20T12:25:32;0.40;;;0.30;;
54855;SDS011;40748;53.168;5.800;2022-11-20T12:28:11;0.30;;;0.10;;
54855;SDS011;40748;53.168;5.800;2022-11-20T12:30:31;0.30;;;0.10;;
54855;SDS011;40748;53.168;5.800;2022-11-20T12:33:12;0.30;;;0.10;;
54855;SDS011;40748;53.168;5.800;2022-11-20T12:35:39;0.30;;;0.10;;
54855;SDS011;40748;53.168;5.800;2022-11-20T12:38:14;0.20;;;0.10;;
54855;SDS011;40748;53.168;5.800;2022-11-20T12:40:36;0.20;;;0.10;;
54855;SDS011;40748;53.168;5.800;2022-11-20T12:43:06;0.20;;;0.10;;
54855;SDS011;40748;53.168;5.800;2022-11-20T12:45:42;0.20;;;0.10;;
54855;SDS011;40748;53.168;5.800;2022-11-20T12:48:18;0.40;;;0.10;;
54855;SDS011;40748;53.168;5.800;2022-11-20T12:50:39;0.40;;;0.10;;
54855;SDS011;40748;53.168;5.800;2022-11-20T12:53:04;0.40;;;0.10;;
54855;SDS011;40748;53.168;5.800;2022-11-20T12:55:36;0.40;;;0.10;;
54855;SDS011;40748;53.168;5.800;2022-11-20T12:58:05;0.20;;;0.10;;
54855;SDS011;40748;53.168;5.800;2022-11-20T13:00:31;0.20;;;0.10;;
54855;SDS011;40748;53.168;5.800;2022-11-20T13:03:09;0.20;;;0.10;;
54855;SDS011;40748;53.168;5.800;2022-11-20T13:05:37;0.20;;;0.10;;
54855;SDS011;40748;53.168;5.800;2022-11-20T13:08:01;0.60;;;0.20;;
54855;SDS011;40748;53.168;5.800;2022-11-20T13:10:33;0.60;;;0.20;;
54855;SDS011;40748;53.168;5.800;2022-11-20T13:13:07;0.60;;;0.20;;
54855;SDS011;40748;53.168;5.800;2022-11-20T13:15:39;0.60;;;0.20;;
54855;SDS011;40748;53.168;5.800;2022-11-20T13:18:00;0.50;;;0.30;;
54855;SDS011;40748;53.168;5.800;2022-11-20T13:20:30;0.50;;;0.30;;
54855;SDS011;40748;53.168;5.800;2022-11-20T13:22:59;0.50;;;0.30;;
54855;SDS011;40748;53.168;5.800;2022-11-20T13:25:31;0.50;;;0.30;;
54855;SDS011;40748;53.168;5.800;2022-11-20T13:28:03;0.80;;;0.30;;
54855;SDS011;40748;53.168;5.800;2022-11-20T13:33:05;0.80;;;0.30;;
54855;SDS011;40748;53.168;5.800;2022-11-20T13:35:31;0.80;;;0.30;;
54855;SDS011;40748;53.168;5.800;2022-11-20T13:40:29;0.30;;;0.10;;
54855;SDS011;40748;53.168;5.800;2022-11-20T13:43:14;0.30;;;0.10;;
54855;SDS011;40748;53.168;5.800;2022-11-20T13:45:31;0.30;;;0.10;;
54855;SDS011;40748;53.168;5.800;2022-11-20T13:48:03;0.10;;;0.00;;
54855;SDS011;40748;53.168;5.800;2022-11-20T13:50:40;0.10;;;0.00;;
54855;SDS011;40748;53.168;5.800;2022-11-20T13:53:05;0.10;;;0.00;;
54855;SDS011;40748;53.168;5.800;2022-11-20T13:55:37;0.10;;;0.00;;
54855;SDS011;40748;53.168;5.800;2022-11-20T13:58:07;0.20;;;0.00;;
54855;SDS011;40748;53.168;5.800;2022-11-20T14:00:30;0.20;;;0.00;;
54855;SDS011;40748;53.168;5.800;2022-11-20T14:03:09;0.20;;;0.00;;
54855;SDS011;40748;53.168;5.800;2022-11-20T14:05:31;0.20;;;0.00;;
54855;SDS011;40748;53.168;5.800;2022-11-20T14:08:00;0.10;;;0.00;;
54855;SDS011;40748;53.168;5.800;2022-11-20T14:10:29;0.10;;;0.00;;
54855;SDS011;40748;53.168;5.800;2022-11-20T14:13:10;0.10;;;0.00;;
54855;SDS011;40748;53.168;5.800;2022-11-20T14:15:31;0.10;;;0.00;;
54855;SDS011;40748;53.168;5.800;2022-11-20T14:18:00;0.30;;;0.10;;
54855;SDS011;40748;53.168;5.800;2022-11-20T14:20:30;0.30;;;0.10;;
54855;SDS011;40748;53.168;5.800;2022-11-20T14:22:59;0.30;;;0.10;;
54855;SDS011;40748;53.168;5.800;2022-11-20T14:25:29;0.30;;;0.10;;
54855;SDS011;40748;53.168;5.800;2022-11-20T14:28:01;0.20;;;0.00;;
54855;SDS011;40748;53.168;5.800;2022-11-20T14:30:38;0.20;;;0.00;;
54855;SDS011;40748;53.168;5.800;2022-11-20T14:33:03;0.20;;;0.00;;
54855;SDS011;40748;53.168;5.800;2022-11-20T14:35:31;0.20;;;0.00;;
54855;SDS011;40748;53.168;5.800;2022-11-20T14:38:00;2.00;;;0.20;;
54855;SDS011;40748;53.168;5.800;2022-11-20T14:42:59;2.00;;;0.20;;
54855;SDS011;40748;53.168;5.800;2022-11-20T14:45:29;2.00;;;0.20;;
54855;SDS011;40748;53.168;5.800;2022-11-20T14:47:59;0.20;;;0.00;;
54855;SDS011;40748;53.168;5.800;2022-11-20T14:50:30;0.20;;;0.00;;
54855;SDS011;40748;53.168;5.800;2022-11-20T14:53:00;0.20;;;0.00;;
54855;SDS011;40748;53.168;5.800;2022-11-20T14:58:01;0.20;;;0.10;;
54855;SDS011;40748;53.168;5.800;2022-11-20T15:00:30;0.20;;;0.10;;
54855;SDS011;40748;53.168;5.800;2022-11-20T15:02:59;0.20;;;0.10;;
54855;SDS011;40748;53.168;5.800;2022-11-20T15:05:44;0.10;;;0.00;;
54855;SDS011;40748;53.168;5.800;2022-11-20T15:08:06;0.10;;;0.00;;
54855;SDS011;40748;53.168;5.800;2022-11-20T15:10:29;0.10;;;0.00;;
54855;SDS011;40748;53.168;5.800;2022-11-20T15:13:02;0.10;;;0.00;;
54855;SDS011;40748;53.168;5.800;2022-11-20T15:15:32;0.10;;;0.00;;
54855;SDS011;40748;53.168;5.800;2022-11-20T15:17:59;0.10;;;0.00;;
54855;SDS011;40748;53.168;5.800;2022-11-20T15:20:31;0.10;;;0.00;;
54855;SDS011;40748;53.168;5.800;2022-11-20T15:22:59;0.10;;;0.00;;
54855;SDS011;40748;53.168;5.800;2022-11-20T15:25:29;0.10;;;0.00;;
54855;SDS011;40748;53.168;5.800;2022-11-20T15:32:59;0.10;;;0.00;;
54855;SDS011;40748;53.168;5.800;2022-11-20T15:35:29;0.10;;;0.00;;
54855;SDS011;40748;53.168;5.800;2022-11-20T15:37:59;0.20;;;0.00;;
54855;SDS011;40748;53.168;5.800;2022-11-20T15:40:29;0.20;;;0.00;;
54855;SDS011;40748;53.168;5.800;2022-11-20T15:45:34;0.50;;;0.40;;
54855;SDS011;40748;53.168;5.800;2022-11-20T15:47:59;0.50;;;0.40;;
54855;SDS011;40748;53.168;5.800;2022-11-20T15:50:35;0.50;;;0.40;;
54855;SDS011;40748;53.168;5.800;2022-11-20T15:52:59;0.50;;;0.40;;
54855;SDS011;40748;53.168;5.800;2022-11-20T15:57:59;0.20;;;0.10;;
54855;SDS011;40748;53.168;5.800;2022-11-20T16:00:29;0.20;;;0.10;;
54855;SDS011;40748;53.168;5.800;2022-11-20T16:05:30;0.80;;;0.20;;
54855;SDS011;40748;53.168;5.800;2022-11-20T16:07:59;0.80;;;0.20;;
54855;SDS011;40748;53.168;5.800;2022-11-20T16:10:30;0.80;;;0.20;;
54855;SDS011;40748;53.168;5.800;2022-11-20T16:12:59;0.80;;;0.20;;
54855;SDS011;40748;53.168;5.800;2022-11-20T16:15:30;0.10;;;0.00;;
54855;SDS011;40748;53.168;5.800;2022-11-20T16:17:59;0.10;;;0.00;;
54855;SDS011;40748;53.168;5.800;2022-11-20T16:22:59;0.10;;;0.00;;
54855;SDS011;40748;53.168;5.800;2022-11-20T16:25:29;0.20;;;0.00;;
54855;SDS011;40748;53.168;5.800;2022-11-20T16:27:59;0.20;;;0.00;;
54855;SDS011;40748;53.168;5.800;2022-11-20T16:30:30;0.20;;;0.00;;
54855;SDS011;40748;53.168;5.800;2022-11-20T16:33:00;0.20;;;0.00;;
54855;SDS011;40748;53.168;5.800;2022-11-20T16:35:30;0.60;;;0.20;;
54855;SDS011;40748;53.168;5.800;2022-11-20T16:40:29;0.60;;;0.20;;
54855;SDS011;40748;53.168;5.800;2022-11-20T16:45:29;0.10;;;0.00;;